Gas Grouper — V7TZ2 — position and weather

sailwx.info

Track history (hours):
 
Tides and Currents Weather Stations Pressure Air Temp Water Temp Dewpoint Dewpoint Depression Visibility Wind Speed Wind Dir Waves Ship Positions

Gas Grouper

Last reported at 2016-Jul-27 20:24 UTC. Time now 2016-Jul-27 21:07 UTC.
Position N 51°24' E 002°36'.

Length 174 m; draft 10.3 m.

Type: Ship (hazmat cat D). MMSI: 538003910.

Date/timePositionNaut miles runAvg speedWind from/ knotsBaromVisibWave heightAir tempDewpointWater temp
2016-Jul-27 20:24N 51°24' E 002°36'0 0.0
2016-Jul-27 19:19N 51°24' E 002°36'0 0.0
2016-Jul-27 18:31N 51°24' E 002°36'0 0.0
2016-Jul-27 17:33N 51°24' E 002°36'0 0.1
2016-Jul-27 15:30N 51°24' E 002°36'0 0.1
2016-Jul-27 13:15N 51°24' E 002°36'0 0.0
2016-Jul-27 07:12N 51°24' E 002°36'0 0.0
2016-Jul-27 06:32N 51°24' E 002°36'2 1.7
2016-Jul-27 05:31N 51°22' E 002°35'1414.2
2016-Jul-27 04:34N 51°17' E 002°16'1515.2
2016-Jul-27 03:33N 51°09' E 001°54'1514.7
2016-Jul-27 02:34N 50°60' E 001°36'1413.6
2016-Jul-27 01:33N 50°48' E 001°25'5012.5
2016-Jul-26 21:31N 50°22' E 000°17'1212.4
2016-Jul-26 20:33N 50°19' W 000°01'1212.0
2016-Jul-26 19:34N 50°16' W 000°19'1212.1
2016-Jul-26 18:32N 50°13' W 000°38'1212.0
2016-Jul-26 17:33N 50°10' W 000°56'5814.6
2016-Jul-26 13:33N 49°55' W 002°23'1716.7
2016-Jul-26 12:33N 49°50' W 002°48'1616.4
2016-Jul-26 11:33N 49°42' W 003°10'1716.2
2016-Jul-26 10:32N 49°33' W 003°32'1616.1
2016-Jul-26 09:33N 49°25' W 003°53'2016.3
2016-Jul-26 08:17N 49°15' W 004°21'1216.0
2016-Jul-26 07:32N 49°09' W 004°37'1915.8
2016-Jul-26 06:20N 49°00' W 005°02'1114.2
2016-Jul-26 05:33N 48°55' W 005°17'58813.5
2016-Jul-24 10:09N 39°42' W 009°57'2613.9
2016-Jul-24 08:16N 39°15' W 009°57'1213.9
2016-Jul-24 07:25N 39°04' W 009°57'1213.6
2016-Jul-24 06:33N 38°52' W 009°56'1414.2
2016-Jul-24 05:34N 38°38' W 009°55'1414.3
2016-Jul-24 04:34N 38°24' W 009°51'1414.2
2016-Jul-24 03:33N 38°10' W 009°47'1414.3
2016-Jul-24 02:33N 37°56' W 009°44'1514.6
2016-Jul-24 01:33N 37°42' W 009°39'1514.2
2016-Jul-24 00:32N 37°27' W 009°35'1614.1
2016-Jul-23 23:25N 37°12' W 009°30'1213.8
2016-Jul-23 22:33N 37°01' W 009°27'1313.2
2016-Jul-23 21:33N 36°48' W 009°21'1413.8
2016-Jul-23 20:34N 36°40' W 009°07'1814.4
2016-Jul-23 19:16N 36°35' W 008°45'1214.6
2016-Jul-23 18:26N 36°32' W 008°31'1314.5
2016-Jul-23 17:34N 36°28' W 008°15'1414.4
2016-Jul-23 16:34N 36°25' W 007°58'12013.3
2016-Jul-23 07:33N 35°59' W 005°33'1211.6
2016-Jul-23 06:33N 36°02' W 005°19'19414.8
2016-Jul-22 17:26N 36°34' W 001°21'1914.4
2016-Jul-22 16:04N 36°37' W 000°57'814.1
2016-Jul-22 15:31N 36°38' W 000°47'1414.4
2016-Jul-22 14:33N 36°40' W 000°30'3314.1
2016-Jul-22 12:14N 36°46' E 000°10'4614.7
2016-Jul-22 09:08N 36°54' E 001°06'814.1
2016-Jul-22 08:33N 36°55' E 001°16'1615.0
2016-Jul-22 07:29N 36°58' E 001°36'4414.6
2016-Jul-22 04:28N 37°05' E 002°30'1314.5
2016-Jul-22 03:33N 37°08' E 002°46'1714.5
2016-Jul-22 02:23N 37°11' E 003°07'1214.5
2016-Jul-22 01:33N 37°13' E 003°22'1614.3
2016-Jul-22 00:27N 37°16' E 003°42'1314.5
2016-Jul-21 23:33N 37°18' E 003°58'1514.8
2016-Jul-21 22:33N 37°20' E 004°16'1514.6
2016-Jul-21 21:33N 37°23' E 004°34'1514.6
2016-Jul-21 20:33N 37°25' E 004°52'2914.4
2016-Jul-21 18:33N 37°31' E 005°28'1514.6
2016-Jul-21 17:33N 37°33' E 005°46'1514.6
2016-Jul-21 16:32N 37°35' E 006°05'12015.1
2016-Jul-21 08:33N 37°37' E 008°37'1515.2
2016-Jul-21 07:32N 37°38' E 008°56'4314.2
2016-Jul-21 04:33N 37°38' E 009°50'1414.3
2016-Jul-21 03:33N 37°38' E 010°08'4414.5
2016-Jul-21 00:32N 37°30' E 011°02'1514.7
2016-Jul-20 23:30N 37°24' E 011°19'1515.1
2016-Jul-20 22:29N 37°15' E 011°35'1415.0
2016-Jul-20 21:33N 37°10' E 011°52'1514.8
2016-Jul-20 20:33N 37°04' E 012°08'1514.6
2016-Jul-20 19:34N 36°57' E 012°24'1414.5
2016-Jul-20 18:33N 36°50' E 012°40'1414.1
2016-Jul-20 17:34N 36°44' E 012°56'1413.7
2016-Jul-20 16:33N 36°39' E 013°12'1414.0
2016-Jul-20 15:34N 36°35' E 013°29'1414.2
2016-Jul-20 14:34N 36°31' E 013°46'1414.1
2016-Jul-20 13:34N 36°27' E 014°02'1414.1
2016-Jul-20 12:34N 36°24' E 014°19'1514.6
2016-Jul-20 11:34N 36°19' E 014°37'46613.2
2016-Jul-19 00:19N 37°20' E 024°13'2614.6
2016-Jul-18 22:34N 37°42' E 024°30'1514.9
2016-Jul-18 21:34N 37°56' E 024°35'3215.6
2016-Jul-18 19:31N 38°25' E 024°53'  
Track history (hours):
 
Tides and Currents Weather Stations Pressure Air Temp Water Temp Dewpoint Dewpoint Depression Visibility Wind Speed Wind Dir Waves Ship Positions

Gas Grouper

Last reported at 2016-Jul-27 20:24 UTC. Time now 2016-Jul-27 21:07 UTC.
Position N 51°24' E 002°36'.

Length 174 m; draft 10.3 m.

Type: Ship (hazmat cat D). MMSI: 538003910.

Date/timePositionNaut miles runAvg speedWind from/ knotsBaromVisibWave heightAir tempDewpointWater temp
2016-Jul-27 20:24N 51°24' E 002°36'0 0.0
2016-Jul-27 19:19N 51°24' E 002°36'0 0.0
2016-Jul-27 18:31N 51°24' E 002°36'0 0.0
2016-Jul-27 17:33N 51°24' E 002°36'0 0.1
2016-Jul-27 15:30N 51°24' E 002°36'0 0.1
2016-Jul-27 13:15N 51°24' E 002°36'0 0.0
2016-Jul-27 07:12N 51°24' E 002°36'0 0.0
2016-Jul-27 06:32N 51°24' E 002°36'2 1.7
2016-Jul-27 05:31N 51°22' E 002°35'1414.2
2016-Jul-27 04:34N 51°17' E 002°16'1515.2
2016-Jul-27 03:33N 51°09' E 001°54'1514.7
2016-Jul-27 02:34N 50°60' E 001°36'1413.6
2016-Jul-27 01:33N 50°48' E 001°25'5012.5
2016-Jul-26 21:31N 50°22' E 000°17'1212.4
2016-Jul-26 20:33N 50°19' W 000°01'1212.0
2016-Jul-26 19:34N 50°16' W 000°19'1212.1
2016-Jul-26 18:32N 50°13' W 000°38'1212.0
2016-Jul-26 17:33N 50°10' W 000°56'5814.6
2016-Jul-26 13:33N 49°55' W 002°23'1716.7
2016-Jul-26 12:33N 49°50' W 002°48'1616.4
2016-Jul-26 11:33N 49°42' W 003°10'1716.2
2016-Jul-26 10:32N 49°33' W 003°32'1616.1
2016-Jul-26 09:33N 49°25' W 003°53'2016.3
2016-Jul-26 08:17N 49°15' W 004°21'1216.0
2016-Jul-26 07:32N 49°09' W 004°37'1915.8
2016-Jul-26 06:20N 49°00' W 005°02'1114.2
2016-Jul-26 05:33N 48°55' W 005°17'58813.5
2016-Jul-24 10:09N 39°42' W 009°57'2613.9
2016-Jul-24 08:16N 39°15' W 009°57'1213.9
2016-Jul-24 07:25N 39°04' W 009°57'1213.6
2016-Jul-24 06:33N 38°52' W 009°56'1414.2
2016-Jul-24 05:34N 38°38' W 009°55'1414.3
2016-Jul-24 04:34N 38°24' W 009°51'1414.2
2016-Jul-24 03:33N 38°10' W 009°47'1414.3
2016-Jul-24 02:33N 37°56' W 009°44'1514.6
2016-Jul-24 01:33N 37°42' W 009°39'1514.2
2016-Jul-24 00:32N 37°27' W 009°35'1614.1
2016-Jul-23 23:25N 37°12' W 009°30'1213.8
2016-Jul-23 22:33N 37°01' W 009°27'1313.2
2016-Jul-23 21:33N 36°48' W 009°21'1413.8
2016-Jul-23 20:34N 36°40' W 009°07'1814.4
2016-Jul-23 19:16N 36°35' W 008°45'1214.6
2016-Jul-23 18:26N 36°32' W 008°31'1314.5
2016-Jul-23 17:34N 36°28' W 008°15'1414.4
2016-Jul-23 16:34N 36°25' W 007°58'12013.3
2016-Jul-23 07:33N 35°59' W 005°33'1211.6
2016-Jul-23 06:33N 36°02' W 005°19'19414.8
2016-Jul-22 17:26N 36°34' W 001°21'1914.4
2016-Jul-22 16:04N 36°37' W 000°57'814.1
2016-Jul-22 15:31N 36°38' W 000°47'1414.4
2016-Jul-22 14:33N 36°40' W 000°30'3314.1
2016-Jul-22 12:14N 36°46' E 000°10'4614.7
2016-Jul-22 09:08N 36°54' E 001°06'814.1
2016-Jul-22 08:33N 36°55' E 001°16'1615.0
2016-Jul-22 07:29N 36°58' E 001°36'4414.6
2016-Jul-22 04:28N 37°05' E 002°30'1314.5
2016-Jul-22 03:33N 37°08' E 002°46'1714.5
2016-Jul-22 02:23N 37°11' E 003°07'1214.5
2016-Jul-22 01:33N 37°13' E 003°22'1614.3
2016-Jul-22 00:27N 37°16' E 003°42'1314.5
2016-Jul-21 23:33N 37°18' E 003°58'1514.8
2016-Jul-21 22:33N 37°20' E 004°16'1514.6
2016-Jul-21 21:33N 37°23' E 004°34'1514.6
2016-Jul-21 20:33N 37°25' E 004°52'2914.4
2016-Jul-21 18:33N 37°31' E 005°28'1514.6
2016-Jul-21 17:33N 37°33' E 005°46'1514.6
2016-Jul-21 16:32N 37°35' E 006°05'12015.1
2016-Jul-21 08:33N 37°37' E 008°37'1515.2
2016-Jul-21 07:32N 37°38' E 008°56'4314.2
2016-Jul-21 04:33N 37°38' E 009°50'1414.3
2016-Jul-21 03:33N 37°38' E 010°08'4414.5
2016-Jul-21 00:32N 37°30' E 011°02'1514.7
2016-Jul-20 23:30N 37°24' E 011°19'1515.1
2016-Jul-20 22:29N 37°15' E 011°35'1415.0
2016-Jul-20 21:33N 37°10' E 011°52'1514.8
2016-Jul-20 20:33N 37°04' E 012°08'1514.6
2016-Jul-20 19:34N 36°57' E 012°24'1414.5
2016-Jul-20 18:33N 36°50' E 012°40'1414.1
2016-Jul-20 17:34N 36°44' E 012°56'1413.7
2016-Jul-20 16:33N 36°39' E 013°12'1414.0
2016-Jul-20 15:34N 36°35' E 013°29'1414.2
2016-Jul-20 14:34N 36°31' E 013°46'1414.1
2016-Jul-20 13:34N 36°27' E 014°02'1414.1
2016-Jul-20 12:34N 36°24' E 014°19'1514.6
2016-Jul-20 11:34N 36°19' E 014°37'46613.2
2016-Jul-19 00:19N 37°20' E 024°13'2614.6
2016-Jul-18 22:34N 37°42' E 024°30'1514.9
2016-Jul-18 21:34N 37°56' E 024°35'3215.6
2016-Jul-18 19:31N 38°25' E 024°53'  

Dump ship's entire track history